Flight Track Log - Related Links

Times and Time Zones

All times are in EDT time to prevent confusion due to time zone crossing. See the N568PA flight status page for this flight to view local times or setup timezone preferences in your user account.

Time Position Orientation Groundspeed Altitude Reporting Facility
EDT Latitude Longitude Course Direction KTS MPH feet Rate Location/Type
Sat 03:39:54 PM 43.5617 -96.6222 80° East 234 269 4,800  Level Minneapolis Center
Sat 03:40:56 PM 43.5858 -96.5017 74° East 256 295 7,000 2,032 Climbing Minneapolis Center
Sat 03:41:58 PM 43.5869 -96.3853 89° East 285 328 9,000 1,765 Climbing Minneapolis Center
Sat 03:43:12 PM 43.5992 -96.2400 83° East 308 354 11,000 1,897 Climbing Minneapolis Center
Sat 03:44:00 PM 43.6371 -95.9505 84° East  Level FlightAware
Sat 03:44:14 PM 43.6114 -96.1103 83° East 330 380 13,300  Level Minneapolis Center
Sat 03:45:16 PM 43.6256 -95.9494 83° East 349 402 15,800 2,081 Climbing Minneapolis Center
Sat 03:46:18 PM 43.6367 -95.8142 83° East 355 409 17,600 1,790 Climbing Minneapolis Center
Sat 03:47:20 PM 43.6428 -95.6728 87° East 367 422 19,500 1,707 Climbing Minneapolis Center
Sat 03:48:21 PM 43.6539 -95.5294 84° East 376 433 21,100 1,610 Climbing Minneapolis Center
Sat 03:49:23 PM 43.6706 -95.3878 81° East 378 435 22,800 1,210 Climbing Minneapolis Center
Sat 03:50:25 PM 43.6878 -95.2403 81° East 387 445 23,600 1,742 Climbing Minneapolis Center
Sat 03:51:27 PM 43.6964 -95.0622 86° East 388 447 26,400 1,839 Climbing Minneapolis Center
Sat 03:52:29 PM 43.7058 -94.9203 85° East 375 432 27,400 732 Climbing Minneapolis Center
Sat 03:53:30 PM 43.7153 -94.7683 85° East 394 453 27,900 585 Climbing Minneapolis Center
Sat 03:54:32 PM 43.7256 -94.6078 85° East 415 478 28,600 871 Climbing Minneapolis Center
Sat 03:55:34 PM 43.7433 -94.4497 81° East 416 479 29,700 968 Climbing Minneapolis Center
Sat 03:56:36 PM 43.7608 -94.2931 81° East 413 475 30,600 838 Climbing Minneapolis Center
Sat 03:57:50 PM 43.7781 -94.0933 83° East 418 481 31,600 926 Climbing Minneapolis Center
Sat 03:58:52 PM 43.7886 -93.9325 85° East 421 484 32,700 1,122 Climbing Minneapolis Center
Sat 03:59:53 PM 43.8025 -93.7439 84° East 416 479 33,900 829 Climbing Minneapolis Center
Sat 04:00:55 PM 43.8078 -93.5881 87° East 410 472 34,400 484 Climbing Minneapolis Center
Sat 04:02:00 PM 43.8141 -93.4426 87° East  Level FlightAware
Sat 04:02:59 PM 43.8272 -93.2714 87° East 416 479 35,400  Level Minneapolis Center
Sat 04:04:01 PM 43.8369 -93.1158 85° East 411 473 36,200 585 Climbing Minneapolis Center
Sat 04:05:02 PM 43.8461 -92.9947 84° East 405 466 36,600 390 Climbing Minneapolis Center
Sat 04:06:04 PM 43.8586 -92.7803 85° East 402 463 37,000 194 Climbing Minneapolis Center
Sat 04:07:06 PM 43.8633 -92.6236 88° East 407 468 37,000  Level Minneapolis Center
Sat 04:08:08 PM 43.8622 -92.4622 90° East 417 480 37,000  Level Minneapolis Center
Sat 04:09:10 PM 43.8703 -92.2950 86° East 431 496 37,000  Level Minneapolis Center
Sat 04:10:12 PM 43.8781 -92.1278 86° East 436 502 37,000  Level Minneapolis Center
Sat 04:11:14 PM 43.8900 -91.9253 85° East 440 506 37,000  Level Minneapolis Center
Sat 04:12:15 PM 43.9014 -91.7569 85° East 441 507 37,000  Level Minneapolis Center
Sat 04:13:17 PM 43.9119 -91.5897 85° East 443 510 37,000  Level Minneapolis Center
Sat 04:14:19 PM 43.9031 -91.4200 94° East 447 514 37,000  Level Minneapolis Center
Sat 04:15:21 PM 43.8692 -91.2589 106° East 443 510 37,000  Level Minneapolis Center
Sat 04:16:48 PM 43.8411 -91.0247 99° East 444 511 37,000  Level Minneapolis Center
Sat 04:17:49 PM 43.8378 -90.8228 91° East 441 507 37,000  Level Minneapolis Center
Sat 04:18:51 PM 43.8453 -90.6553 86° East 440 506 37,000  Level Minneapolis Center
Sat 04:19:28 PM 43.8481 -90.5547 88° East 440 506 37,000  Level Chicago Center
Sat 04:20:31 PM 43.8514 -90.3881 88° East 437 503 37,000  Level Chicago Center
Sat 04:21:33 PM 43.8569 -90.1953 88° East 439 505 37,000  Level Chicago Center
Sat 04:22:35 PM 43.8617 -90.0292 88° East 433 498 37,000  Level Chicago Center
Sat 04:23:37 PM 43.8644 -89.8644 89° East 428 493 37,000  Level Chicago Center
Sat 04:24:39 PM 43.8656 -89.6978 89° East 429 494 37,000  Level Chicago Center
Sat 04:25:41 PM 43.8658 -89.5325 90° East 428 493 37,000  Level Chicago Center
Sat 04:26:43 PM 43.8706 -89.3394 88° East 428 493 37,000  Level Chicago Center
Sat 04:27:45 PM 43.8739 -89.1742 88° East 428 493 37,000  Level Chicago Center
Sat 04:28:47 PM 43.8758 -89.0075 89° East 429 494 37,000  Level Chicago Center
Sat 04:29:23 PM 43.8744 -88.9231 91° East 429 494 37,000  Level Minneapolis Center
Sat 04:30:25 PM 43.8753 -88.7297 90° East 428 493 37,000  Level Minneapolis Center
Sat 04:31:27 PM 43.8736 -88.5636 91° East 428 493 37,000  Level Minneapolis Center
Sat 04:32:29 PM 43.8725 -88.3975 90° East 427 491 37,000  Level Minneapolis Center
Sat 04:33:31 PM 43.8717 -88.2325 90° East 425 489 37,000  Level Minneapolis Center
Sat 04:34:33 PM 43.8694 -88.0686 91° East 423 487 37,000  Level Minneapolis Center
Sat 04:35:35 PM 43.8669 -87.9056 91° East 422 486 37,000  Level Minneapolis Center
Sat 04:36:37 PM 43.8642 -87.7397 91° East 426 490 37,000  Level Minneapolis Center
Sat 04:37:39 PM 43.8611 -87.5486 91° East 424 488 37,000  Level Minneapolis Center
Sat 04:38:41 PM 43.8608 -87.3864 90° East 421 484 37,000  Level Minneapolis Center
Sat 04:39:43 PM 43.8594 -87.2475 91° East 420 483 37,000  Level Minneapolis Center
Sat 04:40:45 PM 43.8558 -87.0511 91° East 423 487 37,000  Level Minneapolis Center
Sat 04:41:47 PM 43.8533 -86.8906 91° East 419 482 37,000  Level Minneapolis Center
Sat 04:42:49 PM 43.8511 -86.7292 91° East 419 482 37,000  Level Minneapolis Center
Sat 04:43:51 PM 43.8481 -86.5672 91° East 420 483 37,000  Level Minneapolis Center
Sat 04:44:54 PM 43.8464 -86.4064 91° East 417 480 37,000  Level Minneapolis Center
Sat 04:45:55 PM 43.8439 -86.2767 91° East 419 482 37,000  Level Minneapolis Center
Sat 04:46:58 PM 43.8392 -86.0528 92° East 416 479 37,000  Level Minneapolis Center
Sat 04:48:00 PM 43.8319 -85.8922 94° East 417 480 37,000  Level Minneapolis Center
Sat 04:49:02 PM 43.8261 -85.7292 93° East 421 484 37,000  Level Minneapolis Center
Sat 04:50:04 PM 43.8214 -85.5683 92° East 419 482 37,000  Level Minneapolis Center
Sat 04:51:06 PM 43.8164 -85.4072 92° East 418 481 37,000  Level Minneapolis Center
Sat 04:52:08 PM 43.8128 -85.2475 92° East 417 480 37,000  Level Minneapolis Center
Sat 04:53:10 PM 43.8097 -85.0886 91° East 415 478 37,000  Level Minneapolis Center
Sat 04:54:12 PM 43.8050 -84.8986 92° East 412 474 37,000  Level Minneapolis Center
Sat 04:55:14 PM 43.8019 -84.7408 91° East 412 474 37,000  Level Minneapolis Center
Sat 04:56:16 PM 43.7969 -84.5828 92° East 411 473 37,000  Level Minneapolis Center
Sat 04:57:30 PM 43.7917 -84.4256 93° East 410 472 37,000  Level Minneapolis Center
Sat 04:58:33 PM 43.7808 -84.2381 95° East 408 470 37,000  Level Minneapolis Center
Sat 04:59:35 PM 43.7736 -84.0803 94° East 410 472 37,000  Level Minneapolis Center
Sat 05:00:49 PM 43.7650 -83.8639 93° East 405 466 37,000  Level Minneapolis Center
Sat 05:01:51 PM 43.7567 -83.7083 94° East 406 467 37,000  Level Minneapolis Center
Sat 05:02:53 PM 43.7483 -83.5850 95° East 405 466 37,000  Level Minneapolis Center
Sat 05:03:55 PM 43.7347 -83.3989 96° East 406 467 37,000  Level Minneapolis Center
Sat 05:04:57 PM 43.7264 -83.2431 94° East 407 468 37,000  Level Minneapolis Center
Sat 05:05:59 PM 43.7139 -83.0558 95° East 408 470 37,000  Level Minneapolis Center
Sat 05:07:01 PM 43.7092 -82.9006 92° East 407 468 37,000  Level Minneapolis Center
Sat 05:08:03 PM 43.7008 -82.7453 94° East 407 468 37,000  Level Minneapolis Center
Sat 05:09:05 PM 43.6961 -82.5894 92° East 407 468 37,000  Level Minneapolis Center
Sat 05:10:08 PM 43.6897 -82.4325 93° East 409 471 37,000  Level Minneapolis Center
Sat 05:11:10 PM 43.6833 -82.2742 93° East 413 475 37,000  Level Minneapolis Center
Sat 05:12:12 PM 43.6772 -82.0811 92° East 419 482 37,000  Level Minneapolis Center
Sat 05:13:13 PM 43.6500 -81.8833 101° East 430 495 37,000  Level Toronto Center
Sat 05:14:13 PM 43.6500 -81.7333 90° East 430 495 37,000  Level Toronto Center
Sat 05:15:13 PM 43.6333 -81.5667 98° East 430 495 37,000  Level Toronto Center
Sat 05:16:13 PM 43.6167 -81.4000 98° East 430 495 37,000  Level Toronto Center
Sat 05:17:13 PM 43.6000 -81.2167 97° East 440 506 37,000  Level Toronto Center
Sat 05:18:13 PM 43.5833 -81.0667 99° East 440 506 37,000  Level Toronto Center
Sat 05:19:13 PM 43.5667 -80.9000 98° East 440 506 37,000  Level Toronto Center
Sat 05:20:13 PM 43.5667 -80.7333 90° East 440 506 37,000  Level Toronto Center
Sat 05:21:13 PM 43.5500 -80.5500 97° East 440 506 37,000  Level Toronto Center
Sat 05:22:13 PM 43.5500 -80.4000 90° East 450 518 37,000  Level Toronto Center
Sat 05:23:13 PM 43.5333 -80.2000 96° East 450 518 37,000  Level Toronto Center
Sat 05:24:13 PM 43.5167 -80.0500 99° East 450 518 37,000  Level Toronto Center
Sat 05:25:13 PM 43.5000 -79.8833 98° East 450 518 37,000  Level Toronto Center
Sat 05:26:12 PM 43.4833 -79.7000 97° East 450 518 37,000  Level Toronto Center
Sat 05:27:12 PM 43.4667 -79.5167 97° East 460 529 37,000  Level Toronto Center
Sat 05:28:12 PM 43.4500 -79.3500 98° East 460 529 37,000  Level Toronto Center
Sat 05:29:12 PM 43.4333 -79.1667 97° East 460 529 37,000  Level Toronto Center
Sat 05:30:12 PM 43.4333 -79.0167 90° East 460 529 37,000  Level Toronto Center
Sat 05:31:12 PM 43.4167 -78.8333 97° East 460 529 37,000  Level Toronto Center
Sat 05:32:12 PM 43.4000 -78.6500 97° East 460 529 37,000  Level Toronto Center
Sat 05:33:12 PM 43.3667 -78.4667 104° East 470 541 37,000  Level Toronto Center
Sat 05:34:12 PM 43.3667 -78.3000 90° East 460 529 37,000  Level Toronto Center
Sat 05:35:12 PM 43.3500 -78.1500 99° East 460 529 37,000  Level Toronto Center
Sat 05:36:12 PM 43.3333 -77.9333 96° East 460 529 37,000  Level Toronto Center
Sat 05:37:36 PM 43.3192 -77.7297 95° East 464 534 37,000  Level Cleveland Center
Sat 05:38:36 PM 43.3000 -77.5508 98° East 464 534 37,000  Level Cleveland Center
Sat 05:39:36 PM 43.2828 -77.3719 97° East 464 534 37,000  Level Cleveland Center
Sat 05:41:12 PM 43.2333 -77.0667 102° East 470 541 37,000  Level Toronto Center
Sat 05:42:12 PM 43.2167 -76.8833 97° East 470 541 37,000  Level Toronto Center
Sat 05:43:12 PM 43.2000 -76.7000 97° East 470 541 37,000 -70 Level Toronto Center
Sat 05:45:03 PM 43.1736 -76.4606 99° East 471 542 36,800 -526 Descending Boston Center
Sat 05:46:03 PM 43.1497 -76.2483 99° East 471 542 35,500 -1,150 Descending Boston Center
Sat 05:47:03 PM 43.1283 -76.0706 99° East 471 542 34,500 -1,250 Descending Boston Center
Sat 05:48:03 PM 43.1089 -75.8900 98° East 471 542 33,000 -1,750 Descending Boston Center
Sat 05:49:03 PM 43.0872 -75.7069 99° East 471 542 31,000 -1,000 Descending Boston Center
Sat 05:50:03 PM 43.0672 -75.5267 99° East 476 548 31,000  Level Boston Center
Sat 05:51:03 PM 43.0450 -75.3439 99° East 482 555 31,000  Level Boston Center
Sat 05:52:15 PM 43.0211 -75.1267 98° East 482 555 31,000 -273 Level Boston Center
Sat 05:53:15 PM 42.9981 -74.9525 100° East 482 555 30,400 -750 Descending Boston Center
Sat 05:54:15 PM 42.9706 -74.7728 102° East 482 555 29,500 -700 Descending Boston Center
Sat 05:55:15 PM 42.9450 -74.5900 101° East 482 555 29,000 -250 Descending Boston Center
Sat 05:56:15 PM 42.9211 -74.4106 100° East 482 555 29,000 -50 Level Boston Center
Sat 05:57:15 PM 42.8989 -74.2369 100° East 482 555 28,900 -450 Descending Boston Center
Sat 05:58:15 PM 42.8764 -74.0636 100° East 472 543 28,100 -1,050 Descending Boston Center
Sat 05:59:15 PM 42.8519 -73.8703 100° East 466 536 26,800 -955 Descending Boston Center
Sat 06:00:27 PM 42.8328 -73.7397 101° East 466 536 26,000 -1,000 Descending Boston Center
Sat 06:01:27 PM 42.8058 -73.5211 99° East 456 525 24,600 -1,250 Descending Boston Center
Sat 06:02:27 PM 42.7822 -73.3594 101° East 445 512 23,500 -1,000 Descending Boston Center
Sat 06:03:27 PM 42.7583 -73.1981 101° East 445 512 22,600 -1,050 Descending Boston Center
Sat 06:04:27 PM 42.7364 -73.0364 100° East 440 506 21,400 -900 Descending Boston Center
Sat 06:05:27 PM 42.7061 -72.8553 103° East 446 513 20,800 -1,350 Descending Boston Center
Sat 06:06:27 PM 42.6878 -72.7225 101° East 424 488 18,700 -1,050 Descending Boston Center
Sat 06:07:27 PM 42.6650 -72.5531 100° East 411 473 18,700 -450 Level Boston Center
Sat 06:08:27 PM 42.6464 -72.4175 101° East 392 451 17,800 -1,750 Descending Boston Center
Sat 06:09:27 PM 42.6253 -72.2850 102° East 375 432 15,200 -2,500 Descending Boston Center
Sat 06:10:27 PM 42.6064 -72.1525 101° East 358 412 12,800 -1,864 Descending Boston Center
Sat 06:11:39 PM 42.5894 -72.0481 102° East 328 377 11,100 -1,727 Descending Boston Center
Sat 06:12:39 PM 42.5658 -71.9158 104° East 297 342 9,000 -1,750 Descending Boston Center
Sat 06:13:39 PM 42.5467 -71.8117 104° East 269 310 7,600 -1,350 Descending Boston Center
Sat 06:14:39 PM 42.5275 -71.7303 108° East 253 291 6,300 -1,250 Descending Boston Center
Sat 06:15:39 PM 42.5019 -71.6431 112° Southeast 228 262 5,100 -1,290 Descending Boston Center
Sat 06:16:12 PM 42.5000 -71.6000 93° East 210 242 4,300 -1,290 Descending KA90
Sat 06:17:12 PM 42.5000 -71.5167 90° East 198 228 3,100 -900 Descending KA90
Sat 06:18:12 PM 42.4833 -71.4667 114° Southeast 153 176 2,500 -645 Descending KA90
Sat 06:19:13 PM 42.4833 -71.4167 90° East 132 152 1,800 -700 Descending KA90
Sat 06:20:12 PM 42.4833 -71.3667 90° East 132 152 1,100 -655 Descending KA90
Sat 06:21:12 PM 42.4667 -71.3167 114° Southeast 129 148 500 5,768 Descending KA90
Sat 06:23:39 PM 42.4628 -71.2272 93° East 123 142 21,000 5,942 Climbing Boston Center
Sat 06:24:39 PM 42.4558 -71.1767 101° East 123 142 21,000  Level Boston Center
Sat 06:25:39 PM 42.4514 -71.1431 100° East 123 142 21,000  Level Boston Center
Sat 06:26:39 PM 42.4514 -71.1431 109° East 123 142 21,000  Level Boston Center
Sat 06:28:00 PM 42.4667 -71.2833 279° West  Level FlightAware
Sat 06:35:00 PM 42.4699 -71.2890 279° West  Level Estimated
Sat 06:36:00 PM 42.4667 -71.2833 279° West  Level FlightAware
Sat 06:37:00 PM 42.4699 -71.2890 279° West  Level Estimated
Sat 06:38:00 PM 42.4667 -71.2833 279° West  Level FlightAware

Login

Don't have an account? Register now (free) for customized features, flight alerts, and more!